createdAt,value
2019-02-04T00:01:37.777Z,6.33
2019-02-04T00:04:19.668Z,7.60
2019-02-04T00:06:55.331Z,6.12
2019-02-04T00:09:46.400Z,6.70
2019-02-04T00:12:29.990Z,7.13
2019-02-04T00:15:16.805Z,7.20
2019-02-04T00:17:55.615Z,6.53
2019-02-04T00:20:29.183Z,7.03
2019-02-04T00:23:08.781Z,6.23
2019-02-04T00:25:50.678Z,8.30
2019-02-04T00:28:22.840Z,10.20
2019-02-04T00:30:57.784Z,9.40
2019-02-04T00:33:28.453Z,10.57
2019-02-04T00:35:59.552Z,9.50
2019-02-04T00:38:34.427Z,9.43
2019-02-04T00:41:08.500Z,10.83
2019-02-04T00:43:39.263Z,9.27
2019-02-04T00:46:12.519Z,9.33
2019-02-04T00:48:42.445Z,9.37
2019-02-04T00:51:17.627Z,8.80
2019-02-04T00:53:48.262Z,7.93
2019-02-04T00:56:19.923Z,8.20
2019-02-04T00:58:56.556Z,9.30
2019-02-04T01:01:31.627Z,9.38
2019-02-04T01:04:02.445Z,9.23
2019-02-04T01:06:32.276Z,9.90
2019-02-04T01:09:11.294Z,8.50
2019-02-04T01:11:48.790Z,8.50
2019-02-04T01:14:28.515Z,9.33
2019-02-04T01:17:03.556Z,8.30
2019-02-04T01:19:33.338Z,7.90
2019-02-04T01:22:06.847Z,8.50
2019-02-04T01:24:41.016Z,8.90
2019-02-04T01:27:14.148Z,8.43
2019-02-04T01:29:54.418Z,9.20
2019-02-04T01:32:37.683Z,9.63
2019-02-04T01:35:22.124Z,11.27
2019-02-04T01:37:55.304Z,9.07
2019-02-04T01:40:32.835Z,7.97
2019-02-04T01:43:06.782Z,9.77
2019-02-04T01:45:40.825Z,7.83
2019-02-04T01:48:12.579Z,8.73
2019-02-04T01:50:42.845Z,7.50
2019-02-04T01:53:30.181Z,7.57
2019-02-04T01:56:00.922Z,6.83
2019-02-04T01:58:35.564Z,7.20
2019-02-04T02:01:07.266Z,7.73
2019-02-04T02:06:34.343Z,7.40
2019-02-04T02:09:11.439Z,7.63
2019-02-04T02:11:41.683Z,7.73
2019-02-04T02:14:13.219Z,7.50
2019-02-04T02:16:43.171Z,7.53
2019-02-04T02:19:16.855Z,7.80
2019-02-04T02:21:49.656Z,6.97
2019-02-04T02:24:28.616Z,8.33
2019-02-04T02:29:51.548Z,7.63
2019-02-04T02:32:26.721Z,8.10
2019-02-04T02:35:13.234Z,8.07
2019-02-04T02:37:46.762Z,8.30
2019-02-04T02:40:22.167Z,7.53
2019-02-04T02:42:55.890Z,7.83
2019-02-04T02:45:26.038Z,7.07
2019-02-04T02:47:56.614Z,7.43
2019-02-04T02:50:26.429Z,8.60
2019-02-04T02:52:56.871Z,7.53
2019-02-04T02:55:32.225Z,7.70
2019-02-04T02:58:12.914Z,7.80
2019-02-04T03:00:43.134Z,7.13
2019-02-04T03:03:13.967Z,7.80
2019-02-04T03:05:53.346Z,7.73
2019-02-04T03:08:23.644Z,7.90
2019-02-04T03:14:00.653Z,8.50
2019-02-04T03:16:41.380Z,8.50
2019-02-04T03:19:11.954Z,7.87
2019-02-04T03:21:42.312Z,6.97
2019-02-04T03:24:13.295Z,7.23
2019-02-04T03:26:47.082Z,7.53
2019-02-04T03:29:23.217Z,7.37
2019-02-04T03:31:54.362Z,8.23
2019-02-04T03:34:30.881Z,6.83
2019-02-04T03:37:01.344Z,7.97
2019-02-04T03:39:31.423Z,7.63
2019-02-04T03:42:05.191Z,6.57
2019-02-04T03:44:35.414Z,8.33
2019-02-04T03:47:05.593Z,8.77
2019-02-04T03:49:35.545Z,8.43
2019-02-04T03:52:09.205Z,8.83
2019-02-04T03:54:43.397Z,8.80
2019-02-04T03:57:16.388Z,7.87
2019-02-04T03:59:52.873Z,8.30
2019-02-04T04:02:27.966Z,8.90
2019-02-04T04:05:06.609Z,8.73
2019-02-04T04:07:36.651Z,9.37
2019-02-04T04:10:07.827Z,6.80
2019-02-04T04:12:39.343Z,7.70
2019-02-04T04:15:21.136Z,8.30
2019-02-04T04:17:50.496Z,7.80
2019-02-04T04:20:29.686Z,7.70
2019-02-04T04:23:00.493Z,7.40
2019-02-04T04:25:33.322Z,7.37
2019-02-04T04:28:04.222Z,6.80
2019-02-04T04:30:44.471Z,7.57
2019-02-04T04:33:23.212Z,7.57
2019-02-04T04:36:10.949Z,7.30
2019-02-04T04:38:41.823Z,8.23
2019-02-04T04:41:30.269Z,7.47
2019-02-04T04:44:00.547Z,7.83
2019-02-04T04:46:30.839Z,7.97
2019-02-04T04:49:01.397Z,8.00
2019-02-04T04:51:31.427Z,11.70
2019-02-04T04:54:01.668Z,11.97
2019-02-04T04:56:40.897Z,8.90
2019-02-04T04:59:11.812Z,8.63
2019-02-04T05:01:54.382Z,9.03
2019-02-04T05:04:28.075Z,9.07
2019-02-04T05:07:14.775Z,8.57
2019-02-04T05:09:47.007Z,7.97
2019-02-04T05:12:17.445Z,8.10
2019-02-04T05:14:54.081Z,10.70
2019-02-04T05:17:31.384Z,10.73
2019-02-04T05:20:05.569Z,9.13
2019-02-04T05:22:35.877Z,13.23
2019-02-04T05:25:07.692Z,10.63
2019-02-04T05:27:38.085Z,9.17
2019-02-04T05:30:10.455Z,9.97
2019-02-04T05:32:41.000Z,9.57
2019-02-04T05:35:17.060Z,10.17
2019-02-04T05:37:51.201Z,10.57
2019-02-04T05:40:22.653Z,9.40
2019-02-04T05:42:54.713Z,8.90
2019-02-04T05:45:31.922Z,9.03
2019-02-04T05:48:02.480Z,7.57
2019-02-04T05:50:36.404Z,11.33
2019-02-04T05:53:06.576Z,10.03
2019-02-04T05:55:46.456Z,8.80
2019-02-04T05:58:18.525Z,7.57
2019-02-04T06:00:50.466Z,10.13
2019-02-04T06:03:20.874Z,8.30
2019-02-04T06:05:50.900Z,7.73
2019-02-04T06:08:21.657Z,6.60
2019-02-04T06:10:55.198Z,6.60
2019-02-04T06:13:45.279Z,7.50
2019-02-04T06:16:20.128Z,11.10
2019-02-04T06:19:00.494Z,10.30
2019-02-04T06:21:23.419Z,9.50
2019-02-04T06:23:54.817Z,9.67
2019-02-04T06:26:26.539Z,8.90
2019-02-04T06:29:01.223Z,8.77
2019-02-04T06:31:42.871Z,10.67
2019-02-04T06:34:20.907Z,10.70
2019-02-04T06:36:50.911Z,10.23
2019-02-04T06:39:20.208Z,9.90
2019-02-04T06:41:50.593Z,10.87
2019-02-04T06:44:20.354Z,10.00
2019-02-04T06:46:50.142Z,9.67
2019-02-04T06:49:19.622Z,10.30
2019-02-04T06:51:50.259Z,13.60
2019-02-04T06:54:23.264Z,10.70
2019-02-04T06:56:53.243Z,10.73
2019-02-04T06:59:22.871Z,11.10
2019-02-04T07:01:52.928Z,10.30
2019-02-04T07:04:27.207Z,11.50
2019-02-04T07:06:56.936Z,13.97
2019-02-04T07:09:26.721Z,11.60
2019-02-04T07:11:56.604Z,11.73
2019-02-04T07:14:26.859Z,10.40
2019-02-04T07:16:56.728Z,11.43
2019-02-04T07:19:26.128Z,13.17
2019-02-04T07:21:56.367Z,10.27
2019-02-04T07:24:26.091Z,10.73
2019-02-04T07:26:55.820Z,8.77
2019-02-04T07:29:25.606Z,10.47
2019-02-04T07:31:55.142Z,9.30
2019-02-04T07:34:24.436Z,10.13
2019-02-04T07:36:54.155Z,10.17
2019-02-04T07:39:23.914Z,10.67
2019-02-04T07:41:54.013Z,10.50
2019-02-04T07:44:24.466Z,9.93
2019-02-04T07:46:55.084Z,11.17
2019-02-04T07:49:34.757Z,8.90
2019-02-04T07:51:56.576Z,9.90
2019-02-04T07:54:26.120Z,10.07
2019-02-04T07:56:55.733Z,11.50
2019-02-04T07:59:25.342Z,14.53
2019-02-04T08:01:55.310Z,10.40
2019-02-04T08:04:25.386Z,10.83
2019-02-04T08:06:55.892Z,11.53
2019-02-04T08:09:26.116Z,11.10
2019-02-04T08:11:56.567Z,10.30
2019-02-04T08:14:26.195Z,10.53
2019-02-04T08:17:21.866Z,9.37
2019-02-04T08:20:24.428Z,10.33
2019-02-04T08:23:07.713Z,11.17
2019-02-04T08:26:04.882Z,11.07
2019-02-04T08:28:37.922Z,11.07
2019-02-04T08:31:37.113Z,19.47
2019-02-04T08:34:23.142Z,16.10
2019-02-04T08:36:50.250Z,18.37
2019-02-04T08:39:48.172Z,15.17
2019-02-04T08:42:49.206Z,13.63
2019-02-04T08:53:22.514Z,20.50
2019-02-04T09:03:35.697Z,11.67
2019-02-04T09:11:10.236Z,10.07
2019-02-04T09:18:05.922Z,17.97
2019-02-04T09:21:13.428Z,16.20
2019-02-04T09:36:59.915Z,11.43
2019-02-04T09:40:22.713Z,10.90
2019-02-04T09:43:50.367Z,10.80
2019-02-04T09:54:53.948Z,11.50
2019-02-04T10:01:30.630Z,10.67
2019-02-04T10:04:47.899Z,10.10
2019-02-04T10:07:41.697Z,12.17
2019-02-04T10:17:50.471Z,14.93
2019-02-04T10:20:34.628Z,14.60
2019-02-04T10:23:47.319Z,16.33
2019-02-04T10:27:20.146Z,17.60
2019-02-04T10:38:31.809Z,11.10
2019-02-04T10:41:11.271Z,11.33
2019-02-04T10:43:47.286Z,13.23
2019-02-04T10:46:25.145Z,12.93
2019-02-04T11:21:01.267Z,6.90
2019-02-04T11:24:21.825Z,6.90
2019-02-04T11:38:58.167Z,7.03
2019-02-04T11:41:35.713Z,6.40
2019-02-04T11:44:06.208Z,7.03
2019-02-04T11:46:36.584Z,6.50
2019-02-04T11:49:07.180Z,6.63
2019-02-04T11:51:37.399Z,6.80
2019-02-04T11:54:07.421Z,7.30
2019-02-04T11:56:39.110Z,8.87
2019-02-04T11:59:09.198Z,9.10
2019-02-04T12:01:39.441Z,7.80
2019-02-04T12:04:09.762Z,9.30
2019-02-04T12:06:39.654Z,8.20
2019-02-04T12:09:10.600Z,6.90
2019-02-04T12:11:40.991Z,8.03
2019-02-04T12:14:11.058Z,8.57
2019-02-04T12:16:41.050Z,7.50
2019-02-04T12:19:11.014Z,7.10
2019-02-04T12:21:41.056Z,7.63
2019-02-04T12:24:11.191Z,8.40
2019-02-04T12:26:40.917Z,8.10
2019-02-04T12:29:10.737Z,7.40
2019-02-04T12:31:40.191Z,7.87
2019-02-04T12:34:09.591Z,8.17
2019-02-04T12:36:39.605Z,7.33
2019-02-04T12:39:18.037Z,7.40
2019-02-04T12:41:50.654Z,7.50
2019-02-04T12:44:20.541Z,7.60
2019-02-04T12:46:51.834Z,7.00
2019-02-04T12:49:22.337Z,6.80
2019-02-04T12:51:52.865Z,7.80
2019-02-04T12:54:22.928Z,7.63
2019-02-04T12:56:54.253Z,7.60
2019-02-04T12:59:24.375Z,6.73
2019-02-04T13:01:54.726Z,7.77
2019-02-04T13:04:25.238Z,8.17
2019-02-04T13:06:57.276Z,7.53
2019-02-04T13:09:27.107Z,12.43
2019-02-04T13:11:57.444Z,6.90
2019-02-04T13:14:27.389Z,7.10
2019-02-04T13:16:57.226Z,7.50
2019-02-04T13:19:27.254Z,8.10
2019-02-04T13:22:08.327Z,7.50
2019-02-04T13:24:38.223Z,6.97
2019-02-04T13:27:08.370Z,7.80
2019-02-04T13:29:38.431Z,7.47
2019-02-04T13:32:13.335Z,7.10
2019-02-04T13:34:42.876Z,7.67
2019-02-04T13:37:15.687Z,7.00
2019-02-04T14:11:10.191Z,7.50
2019-02-04T14:13:49.826Z,7.53
2019-02-04T14:16:45.931Z,7.13
2019-02-04T14:22:31.167Z,5.10
2019-02-04T14:25:01.857Z,6.17
2019-02-04T14:28:48.996Z,5.93
2019-02-04T14:31:26.044Z,5.80
2019-02-04T14:33:59.805Z,6.70
2019-02-04T14:36:39.571Z,5.50
2019-02-04T14:39:16.998Z,5.30
2019-02-04T14:41:50.836Z,6.50
2019-02-04T14:44:52.732Z,6.97
2019-02-04T14:48:15.225Z,6.07
2019-02-04T14:51:23.683Z,5.80
2019-02-04T14:54:43.606Z,5.60
2019-02-04T14:57:44.233Z,5.07
2019-02-04T15:00:55.265Z,4.97
2019-02-04T15:03:58.962Z,6.07
2019-02-04T15:07:15.704Z,7.00
2019-02-04T15:10:34.574Z,8.10
2019-02-04T15:13:39.772Z,7.50
2019-02-04T15:16:46.078Z,7.70
2019-02-04T15:20:14.378Z,5.90
2019-02-04T15:23:43.334Z,6.70
2019-02-04T15:27:04.325Z,5.57
2019-02-04T15:30:07.540Z,6.17
2019-02-04T15:33:33.152Z,8.87
2019-02-04T15:36:36.437Z,7.50
2019-02-04T15:39:45.152Z,7.00
2019-02-04T15:42:53.778Z,6.67
2019-02-04T15:46:03.925Z,7.30
2019-02-04T15:49:23.673Z,7.20
2019-02-04T15:51:58.314Z,7.10
2019-02-04T15:54:31.703Z,7.73
2019-02-04T15:57:04.599Z,6.27
2019-02-04T15:59:45.126Z,6.10
2019-02-04T16:02:16.519Z,6.90
2019-02-04T16:05:11.895Z,7.37
2019-02-04T16:07:43.356Z,6.87
2019-02-04T16:10:25.293Z,7.27
2019-02-04T16:12:57.171Z,7.40
2019-02-04T16:15:42.260Z,7.90
2019-02-04T16:18:11.390Z,7.87
2019-02-04T16:20:41.850Z,8.23
2019-02-04T16:23:11.696Z,8.40
2019-02-04T16:25:41.660Z,7.60
2019-02-04T16:28:11.821Z,8.17
2019-02-04T16:30:41.890Z,12.07
2019-02-04T16:33:12.913Z,15.03
2019-02-04T16:35:45.593Z,15.83
2019-02-04T16:38:14.847Z,18.37
2019-02-04T16:40:44.392Z,13.50
2019-02-04T16:43:14.246Z,9.83
2019-02-04T16:45:43.643Z,16.97
2019-02-04T16:48:13.283Z,14.33
2019-02-04T16:50:42.760Z,13.97
2019-02-04T16:53:12.355Z,13.13
2019-02-04T16:55:41.928Z,12.47
2019-02-04T16:58:11.762Z,13.90
2019-02-04T17:00:41.160Z,13.07
2019-02-04T17:03:11.547Z,12.53
2019-02-04T17:05:41.859Z,12.97
2019-02-04T17:08:11.413Z,11.83
2019-02-04T17:10:40.899Z,12.07
2019-02-04T17:13:10.714Z,13.23
2019-02-04T17:15:40.657Z,12.87
2019-02-04T17:18:11.888Z,12.43
2019-02-04T17:20:41.255Z,10.90
2019-02-04T17:23:21.619Z,13.60
2019-02-04T17:25:42.229Z,12.40
2019-02-04T17:28:11.574Z,12.90
2019-02-04T17:30:41.356Z,12.30
2019-02-04T17:33:11.325Z,13.90
2019-02-04T17:35:40.627Z,15.33
2019-02-04T17:38:09.962Z,15.73
2019-02-04T17:40:39.951Z,15.97
2019-02-04T17:43:10.019Z,11.47
2019-02-04T17:45:39.423Z,14.10
2019-02-04T17:48:09.432Z,14.40
2019-02-04T18:09:07.100Z,9.73
2019-02-04T18:11:37.595Z,9.00
2019-02-04T18:14:08.353Z,10.37
2019-02-04T18:16:38.808Z,12.90
2019-02-04T18:19:10.994Z,18.20
2019-02-04T18:21:42.488Z,16.60
2019-02-04T18:24:12.785Z,19.97
2019-02-04T18:26:45.277Z,20.90
2019-02-04T18:29:15.722Z,21.47
2019-02-04T18:31:46.544Z,17.13
2019-02-04T18:34:16.361Z,16.93
2019-02-04T18:36:48.251Z,17.30
2019-02-04T18:39:21.960Z,17.13
2019-02-04T18:41:55.505Z,15.83
2019-02-04T18:44:24.263Z,15.30
2019-02-04T18:46:57.261Z,18.10
2019-02-04T18:49:27.551Z,17.80
2019-02-04T18:51:59.485Z,13.63
2019-02-04T18:54:33.266Z,13.80
2019-02-04T18:57:03.556Z,14.13
2019-02-04T18:59:34.150Z,13.30
2019-02-04T19:02:04.523Z,13.83
2019-02-04T19:04:34.652Z,12.20
2019-02-04T19:07:06.228Z,12.80
2019-02-04T19:09:38.696Z,13.03
2019-02-04T19:12:12.957Z,13.80
2019-02-04T19:14:44.058Z,14.70
2019-02-04T19:17:18.054Z,12.83
2019-02-04T19:19:52.161Z,11.77
2019-02-04T19:22:28.680Z,12.77
2019-02-04T19:24:59.903Z,12.63
2019-02-04T19:27:29.857Z,13.00
2019-02-04T19:30:00.836Z,17.30
2019-02-04T19:32:31.934Z,16.40
2019-02-04T19:35:11.787Z,15.17
2019-02-04T19:37:48.065Z,14.80
2019-02-04T19:40:24.058Z,13.70
2019-02-04T19:42:56.419Z,12.93
2019-02-04T19:45:27.291Z,14.93
2019-02-04T19:48:06.803Z,14.93
2019-02-04T19:50:37.977Z,13.57
2019-02-04T19:53:08.448Z,12.70
2019-02-04T19:55:54.390Z,15.07
2019-02-04T19:58:25.543Z,14.50
2019-02-04T20:01:00.465Z,12.67
2019-02-04T20:03:36.910Z,12.77
2019-02-04T20:06:14.301Z,12.03
2019-02-04T20:08:46.858Z,12.23
2019-02-04T20:11:21.218Z,12.57
2019-02-04T20:13:52.121Z,11.10
2019-02-04T20:16:25.752Z,11.90
2019-02-04T20:19:00.281Z,13.30
2019-02-04T20:21:31.015Z,13.73
2019-02-04T20:24:05.736Z,12.90
2019-02-04T20:26:35.858Z,12.30
2019-02-04T20:37:20.946Z,13.93
2019-02-04T20:51:12.212Z,12.67
2019-02-04T20:53:43.443Z,13.87
2019-02-04T20:56:14.470Z,14.70
2019-02-04T20:58:47.432Z,14.37
2019-02-04T21:01:20.541Z,15.10
2019-02-04T21:03:51.628Z,14.73
2019-02-04T21:07:11.548Z,13.40
2019-02-04T21:09:43.924Z,16.90
2019-02-04T21:12:18.545Z,14.67
2019-02-04T21:14:52.695Z,14.20
2019-02-04T21:17:23.334Z,14.27
2019-02-04T21:19:54.296Z,15.07
2019-02-04T21:22:25.845Z,12.70
2019-02-04T21:24:56.796Z,14.20
2019-02-04T21:27:27.103Z,14.00
2019-02-04T21:29:57.200Z,18.93
2019-02-04T21:32:27.431Z,17.10
2019-02-04T21:34:57.509Z,14.00
2019-02-04T21:37:28.207Z,16.57
2019-02-04T21:40:01.981Z,14.77
2019-02-04T21:42:44.412Z,12.70
2019-02-04T21:45:20.541Z,15.17
2019-02-04T21:47:53.240Z,13.30
2019-02-04T21:50:28.102Z,15.97
2019-02-04T21:52:58.825Z,13.97
2019-02-04T21:55:32.148Z,14.00
2019-02-04T21:58:12.982Z,12.83
2019-02-04T22:00:48.183Z,15.10
2019-02-04T22:03:18.807Z,13.57
2019-02-04T22:05:55.797Z,14.83
2019-02-04T22:08:31.247Z,16.07
2019-02-04T22:11:03.162Z,15.07
2019-02-04T22:13:33.959Z,14.73
2019-02-04T22:16:04.007Z,14.87
2019-02-04T22:18:33.947Z,15.07
2019-02-04T22:21:04.380Z,14.23
2019-02-04T22:23:36.556Z,15.53
2019-02-04T22:26:09.761Z,14.60
2019-02-04T22:28:43.022Z,15.60
2019-02-04T22:31:26.081Z,14.20
2019-02-04T22:34:08.520Z,16.03
2019-02-04T22:36:39.353Z,14.90
2019-02-04T22:39:12.177Z,16.60
2019-02-04T22:41:42.402Z,15.20
2019-02-04T22:44:18.140Z,15.50
2019-02-04T22:46:48.047Z,14.77
2019-02-04T22:49:17.964Z,15.47
2019-02-04T22:51:55.407Z,15.70
2019-02-04T22:54:25.529Z,15.20
2019-02-04T22:56:55.693Z,15.77
2019-02-04T22:59:26.291Z,15.10
2019-02-04T23:02:02.019Z,16.30
2019-02-04T23:04:32.823Z,15.80
2019-02-04T23:07:07.040Z,17.60
2019-02-04T23:09:39.615Z,17.27
2019-02-04T23:12:10.453Z,17.27
2019-02-04T23:14:40.483Z,16.10
2019-02-04T23:17:10.654Z,17.70
2019-02-04T23:19:48.280Z,16.70
2019-02-04T23:22:18.292Z,16.20
2019-02-04T23:24:48.736Z,16.60
2019-02-04T23:27:19.051Z,21.43
2019-02-04T23:29:49.287Z,18.20
2019-02-04T23:32:19.310Z,15.77
2019-02-04T23:34:52.415Z,16.10
2019-02-04T23:37:22.660Z,17.53
2019-02-04T23:39:52.793Z,15.57
2019-02-04T23:42:22.855Z,16.90
2019-02-04T23:44:54.201Z,17.10
2019-02-04T23:47:25.034Z,16.90
2019-02-04T23:49:55.503Z,16.60
2019-02-04T23:52:26.547Z,16.87
2019-02-04T23:55:00.521Z,15.87
2019-02-04T23:57:30.961Z,15.43
